sensor_id;sensor_type;location;lat;lon;timestamp;P1;durP1;ratioP1;P2;durP2;ratioP2
39074;SDS011;24826;52.070;20.970;2022-12-29T00:00:50;10.43;;;5.80;;
39074;SDS011;24826;52.070;20.970;2022-12-29T00:03:34;11.50;;;5.88;;
39074;SDS011;24826;52.070;20.970;2022-12-29T00:06:19;13.50;;;6.38;;
39074;SDS011;24826;52.070;20.970;2022-12-29T00:09:04;12.07;;;5.88;;
39074;SDS011;24826;52.070;20.970;2022-12-29T00:11:48;9.75;;;5.50;;
39074;SDS011;24826;52.070;20.970;2022-12-29T00:14:34;10.48;;;5.63;;
39074;SDS011;24826;52.070;20.970;2022-12-29T00:17:37;12.57;;;6.00;;
39074;SDS011;24826;52.070;20.970;2022-12-29T00:20:21;13.05;;;6.25;;
39074;SDS011;24826;52.070;20.970;2022-12-29T00:23:25;11.70;;;6.28;;
39074;SDS011;24826;52.070;20.970;2022-12-29T00:26:28;12.35;;;5.88;;
39074;SDS011;24826;52.070;20.970;2022-12-29T00:29:30;13.00;;;5.70;;
39074;SDS011;24826;52.070;20.970;2022-12-29T00:32:34;10.00;;;5.70;;
39074;SDS011;24826;52.070;20.970;2022-12-29T00:35:39;13.35;;;5.55;;
39074;SDS011;24826;52.070;20.970;2022-12-29T00:38:28;11.52;;;5.78;;
39074;SDS011;24826;52.070;20.970;2022-12-29T00:41:32;11.38;;;6.05;;
39074;SDS011;24826;52.070;20.970;2022-12-29T00:44:36;9.93;;;5.03;;
39074;SDS011;24826;52.070;20.970;2022-12-29T00:47:20;9.10;;;5.00;;
39074;SDS011;24826;52.070;20.970;2022-12-29T00:50:05;14.45;;;5.68;;
39074;SDS011;24826;52.070;20.970;2022-12-29T00:52:49;10.70;;;5.47;;
39074;SDS011;24826;52.070;20.970;2022-12-29T00:55:36;10.93;;;5.30;;
39074;SDS011;24826;52.070;20.970;2022-12-29T00:58:22;11.55;;;5.45;;
39074;SDS011;24826;52.070;20.970;2022-12-29T01:01:07;9.10;;;5.55;;
39074;SDS011;24826;52.070;20.970;2022-12-29T01:03:52;9.40;;;5.00;;
39074;SDS011;24826;52.070;20.970;2022-12-29T01:06:38;11.23;;;5.28;;
39074;SDS011;24826;52.070;20.970;2022-12-29T01:09:24;12.48;;;5.15;;
39074;SDS011;24826;52.070;20.970;2022-12-29T01:16:08;11.53;;;4.83;;
39074;SDS011;24826;52.070;20.970;2022-12-29T01:18:52;10.93;;;5.13;;
39074;SDS011;24826;52.070;20.970;2022-12-29T01:21:37;8.88;;;4.82;;
39074;SDS011;24826;52.070;20.970;2022-12-29T01:24:21;8.90;;;4.47;;
39074;SDS011;24826;52.070;20.970;2022-12-29T01:27:05;10.23;;;4.53;;
39074;SDS011;24826;52.070;20.970;2022-12-29T01:29:50;10.52;;;4.82;;
39074;SDS011;24826;52.070;20.970;2022-12-29T01:32:35;9.15;;;4.15;;
39074;SDS011;24826;52.070;20.970;2022-12-29T01:35:19;10.55;;;4.57;;
39074;SDS011;24826;52.070;20.970;2022-12-29T01:38:03;8.18;;;4.22;;
39074;SDS011;24826;52.070;20.970;2022-12-29T01:40:48;8.82;;;4.15;;
39074;SDS011;24826;52.070;20.970;2022-12-29T01:43:42;10.80;;;4.68;;
39074;SDS011;24826;52.070;20.970;2022-12-29T01:46:36;7.50;;;4.07;;
39074;SDS011;24826;52.070;20.970;2022-12-29T01:49:23;8.13;;;4.53;;
39074;SDS011;24826;52.070;20.970;2022-12-29T01:52:11;8.30;;;4.78;;
39074;SDS011;24826;52.070;20.970;2022-12-29T01:54:56;8.15;;;4.00;;
39074;SDS011;24826;52.070;20.970;2022-12-29T01:57:43;7.90;;;4.10;;
39074;SDS011;24826;52.070;20.970;2022-12-29T02:00:32;9.32;;;4.25;;
39074;SDS011;24826;52.070;20.970;2022-12-29T02:03:17;9.25;;;4.05;;
39074;SDS011;24826;52.070;20.970;2022-12-29T02:09:07;8.32;;;4.10;;
39074;SDS011;24826;52.070;20.970;2022-12-29T02:11:51;8.95;;;4.88;;
39074;SDS011;24826;52.070;20.970;2022-12-29T02:14:36;10.70;;;4.20;;
39074;SDS011;24826;52.070;20.970;2022-12-29T02:32:30;9.65;;;4.05;;
39074;SDS011;24826;52.070;20.970;2022-12-29T02:35:32;10.38;;;4.22;;
39074;SDS011;24826;52.070;20.970;2022-12-29T02:41:56;10.10;;;4.28;;
39074;SDS011;24826;52.070;20.970;2022-12-29T02:47:54;7.10;;;3.30;;
39074;SDS011;24826;52.070;20.970;2022-12-29T02:50:50;8.57;;;4.43;;
39074;SDS011;24826;52.070;20.970;2022-12-29T02:53:41;8.63;;;4.10;;
39074;SDS011;24826;52.070;20.970;2022-12-29T02:56:44;7.40;;;3.70;;
39074;SDS011;24826;52.070;20.970;2022-12-29T02:59:29;7.57;;;3.63;;
39074;SDS011;24826;52.070;20.970;2022-12-29T03:02:17;7.32;;;4.03;;
39074;SDS011;24826;52.070;20.970;2022-12-29T03:05:33;8.57;;;3.85;;
39074;SDS011;24826;52.070;20.970;2022-12-29T03:12:09;9.80;;;4.13;;
39074;SDS011;24826;52.070;20.970;2022-12-29T03:15:07;7.05;;;3.67;;
39074;SDS011;24826;52.070;20.970;2022-12-29T03:18:20;9.52;;;4.30;;
39074;SDS011;24826;52.070;20.970;2022-12-29T03:21:11;8.30;;;4.35;;
39074;SDS011;24826;52.070;20.970;2022-12-29T03:24:39;8.98;;;4.03;;
39074;SDS011;24826;52.070;20.970;2022-12-29T03:27:31;7.50;;;4.32;;
39074;SDS011;24826;52.070;20.970;2022-12-29T03:30:20;10.20;;;3.97;;
39074;SDS011;24826;52.070;20.970;2022-12-29T03:33:07;8.93;;;4.00;;
39074;SDS011;24826;52.070;20.970;2022-12-29T03:35:57;8.63;;;4.72;;
39074;SDS011;24826;52.070;20.970;2022-12-29T03:39:05;9.55;;;3.90;;
39074;SDS011;24826;52.070;20.970;2022-12-29T03:41:57;9.23;;;4.18;;
39074;SDS011;24826;52.070;20.970;2022-12-29T03:44:45;11.03;;;3.83;;
39074;SDS011;24826;52.070;20.970;2022-12-29T03:47:30;9.07;;;4.45;;
39074;SDS011;24826;52.070;20.970;2022-12-29T03:50:15;8.95;;;4.47;;
39074;SDS011;24826;52.070;20.970;2022-12-29T03:52:59;11.65;;;5.10;;
39074;SDS011;24826;52.070;20.970;2022-12-29T03:55:44;9.93;;;5.05;;
39074;SDS011;24826;52.070;20.970;2022-12-29T03:58:28;9.85;;;4.35;;
39074;SDS011;24826;52.070;20.970;2022-12-29T04:01:12;10.43;;;4.45;;
39074;SDS011;24826;52.070;20.970;2022-12-29T04:03:56;11.75;;;5.35;;
39074;SDS011;24826;52.070;20.970;2022-12-29T04:06:40;10.07;;;5.10;;
39074;SDS011;24826;52.070;20.970;2022-12-29T04:09:24;9.43;;;5.25;;
39074;SDS011;24826;52.070;20.970;2022-12-29T04:12:09;9.85;;;4.72;;
39074;SDS011;24826;52.070;20.970;2022-12-29T04:14:53;12.05;;;5.35;;
39074;SDS011;24826;52.070;20.970;2022-12-29T04:17:37;11.00;;;5.70;;
39074;SDS011;24826;52.070;20.970;2022-12-29T04:20:22;11.60;;;5.50;;
39074;SDS011;24826;52.070;20.970;2022-12-29T04:23:25;12.13;;;5.50;;
39074;SDS011;24826;52.070;20.970;2022-12-29T04:26:10;10.48;;;5.47;;
39074;SDS011;24826;52.070;20.970;2022-12-29T04:28:54;11.05;;;5.80;;
39074;SDS011;24826;52.070;20.970;2022-12-29T04:31:39;12.60;;;5.78;;
39074;SDS011;24826;52.070;20.970;2022-12-29T04:34:23;12.05;;;6.10;;
39074;SDS011;24826;52.070;20.970;2022-12-29T04:37:08;12.00;;;6.25;;
39074;SDS011;24826;52.070;20.970;2022-12-29T04:39:52;12.90;;;6.22;;
39074;SDS011;24826;52.070;20.970;2022-12-29T04:42:36;14.18;;;6.90;;
39074;SDS011;24826;52.070;20.970;2022-12-29T04:45:21;13.13;;;6.05;;
39074;SDS011;24826;52.070;20.970;2022-12-29T04:48:05;12.52;;;6.15;;
39074;SDS011;24826;52.070;20.970;2022-12-29T04:50:50;15.93;;;6.43;;
39074;SDS011;24826;52.070;20.970;2022-12-29T04:53:34;13.88;;;6.63;;
39074;SDS011;24826;52.070;20.970;2022-12-29T04:56:19;13.50;;;6.75;;
39074;SDS011;24826;52.070;20.970;2022-12-29T04:59:03;12.10;;;6.30;;
39074;SDS011;24826;52.070;20.970;2022-12-29T05:01:48;16.02;;;6.95;;
39074;SDS011;24826;52.070;20.970;2022-12-29T05:04:32;15.77;;;6.70;;
39074;SDS011;24826;52.070;20.970;2022-12-29T05:07:17;11.35;;;5.88;;
39074;SDS011;24826;52.070;20.970;2022-12-29T05:10:01;11.57;;;6.50;;
39074;SDS011;24826;52.070;20.970;2022-12-29T05:12:46;14.90;;;7.35;;
39074;SDS011;24826;52.070;20.970;2022-12-29T05:15:30;15.65;;;6.75;;
39074;SDS011;24826;52.070;20.970;2022-12-29T05:21:49;12.85;;;5.82;;
39074;SDS011;24826;52.070;20.970;2022-12-29T05:24:33;13.70;;;6.38;;
39074;SDS011;24826;52.070;20.970;2022-12-29T05:27:17;12.98;;;6.28;;
39074;SDS011;24826;52.070;20.970;2022-12-29T05:30:02;14.27;;;6.20;;
39074;SDS011;24826;52.070;20.970;2022-12-29T05:32:47;11.95;;;6.47;;
39074;SDS011;24826;52.070;20.970;2022-12-29T05:35:32;13.20;;;6.20;;
39074;SDS011;24826;52.070;20.970;2022-12-29T05:38:16;12.85;;;5.97;;
39074;SDS011;24826;52.070;20.970;2022-12-29T05:41:01;14.35;;;6.45;;
39074;SDS011;24826;52.070;20.970;2022-12-29T05:43:46;13.10;;;6.70;;
39074;SDS011;24826;52.070;20.970;2022-12-29T05:46:31;12.80;;;6.10;;
39074;SDS011;24826;52.070;20.970;2022-12-29T05:49:16;10.55;;;5.85;;
39074;SDS011;24826;52.070;20.970;2022-12-29T05:55:42;13.10;;;6.25;;
39074;SDS011;24826;52.070;20.970;2022-12-29T05:58:27;12.35;;;5.93;;
39074;SDS011;24826;52.070;20.970;2022-12-29T06:01:12;10.98;;;5.25;;
39074;SDS011;24826;52.070;20.970;2022-12-29T06:03:57;13.30;;;5.85;;
39074;SDS011;24826;52.070;20.970;2022-12-29T06:06:41;12.68;;;5.53;;
39074;SDS011;24826;52.070;20.970;2022-12-29T06:09:26;11.70;;;6.05;;
39074;SDS011;24826;52.070;20.970;2022-12-29T06:12:11;13.75;;;5.68;;
39074;SDS011;24826;52.070;20.970;2022-12-29T06:14:55;12.48;;;5.70;;
39074;SDS011;24826;52.070;20.970;2022-12-29T06:17:40;13.15;;;5.70;;
39074;SDS011;24826;52.070;20.970;2022-12-29T06:20:25;11.63;;;5.85;;
39074;SDS011;24826;52.070;20.970;2022-12-29T06:23:09;11.27;;;5.30;;
39074;SDS011;24826;52.070;20.970;2022-12-29T06:25:54;14.00;;;5.70;;
39074;SDS011;24826;52.070;20.970;2022-12-29T06:28:38;10.38;;;5.53;;
39074;SDS011;24826;52.070;20.970;2022-12-29T06:31:23;12.80;;;5.70;;
39074;SDS011;24826;52.070;20.970;2022-12-29T06:34:07;12.82;;;5.35;;
39074;SDS011;24826;52.070;20.970;2022-12-29T06:36:52;11.73;;;5.20;;
39074;SDS011;24826;52.070;20.970;2022-12-29T06:39:36;10.82;;;5.15;;
39074;SDS011;24826;52.070;20.970;2022-12-29T06:42:21;9.45;;;5.18;;
39074;SDS011;24826;52.070;20.970;2022-12-29T06:45:05;11.90;;;5.80;;
39074;SDS011;24826;52.070;20.970;2022-12-29T06:47:51;11.77;;;5.57;;
39074;SDS011;24826;52.070;20.970;2022-12-29T06:50:35;12.70;;;5.32;;
39074;SDS011;24826;52.070;20.970;2022-12-29T06:53:20;11.93;;;5.20;;
39074;SDS011;24826;52.070;20.970;2022-12-29T06:56:04;13.88;;;5.45;;
39074;SDS011;24826;52.070;20.970;2022-12-29T06:58:49;11.38;;;4.85;;
39074;SDS011;24826;52.070;20.970;2022-12-29T07:01:33;12.70;;;5.80;;
39074;SDS011;24826;52.070;20.970;2022-12-29T07:04:20;12.27;;;5.18;;
39074;SDS011;24826;52.070;20.970;2022-12-29T07:07:04;12.68;;;5.57;;
39074;SDS011;24826;52.070;20.970;2022-12-29T07:09:49;12.25;;;5.15;;
39074;SDS011;24826;52.070;20.970;2022-12-29T07:12:34;11.77;;;4.70;;
39074;SDS011;24826;52.070;20.970;2022-12-29T07:15:19;11.65;;;5.35;;
39074;SDS011;24826;52.070;20.970;2022-12-29T07:18:03;11.65;;;5.43;;
39074;SDS011;24826;52.070;20.970;2022-12-29T07:20:48;10.82;;;5.05;;
39074;SDS011;24826;52.070;20.970;2022-12-29T07:23:33;9.75;;;5.15;;
39074;SDS011;24826;52.070;20.970;2022-12-29T07:26:17;10.20;;;5.07;;
39074;SDS011;24826;52.070;20.970;2022-12-29T07:29:02;10.73;;;5.07;;
39074;SDS011;24826;52.070;20.970;2022-12-29T07:31:47;11.15;;;4.95;;
39074;SDS011;24826;52.070;20.970;2022-12-29T07:34:32;10.57;;;5.03;;
39074;SDS011;24826;52.070;20.970;2022-12-29T07:37:17;9.25;;;4.85;;
39074;SDS011;24826;52.070;20.970;2022-12-29T07:40:01;12.88;;;6.05;;
39074;SDS011;24826;52.070;20.970;2022-12-29T07:42:47;11.32;;;5.20;;
39074;SDS011;24826;52.070;20.970;2022-12-29T07:45:31;13.48;;;6.07;;
39074;SDS011;24826;52.070;20.970;2022-12-29T07:48:16;13.80;;;6.20;;
39074;SDS011;24826;52.070;20.970;2022-12-29T07:51:01;14.63;;;6.10;;
39074;SDS011;24826;52.070;20.970;2022-12-29T07:53:45;13.25;;;6.10;;
39074;SDS011;24826;52.070;20.970;2022-12-29T07:56:30;13.32;;;5.25;;
39074;SDS011;24826;52.070;20.970;2022-12-29T07:59:14;12.30;;;4.95;;
39074;SDS011;24826;52.070;20.970;2022-12-29T08:01:59;9.45;;;5.00;;
39074;SDS011;24826;52.070;20.970;2022-12-29T08:04:43;8.88;;;5.07;;
39074;SDS011;24826;52.070;20.970;2022-12-29T08:07:28;10.25;;;5.07;;
39074;SDS011;24826;52.070;20.970;2022-12-29T08:10:13;10.73;;;5.25;;
39074;SDS011;24826;52.070;20.970;2022-12-29T08:12:58;10.13;;;4.57;;
39074;SDS011;24826;52.070;20.970;2022-12-29T08:15:43;10.60;;;4.60;;
39074;SDS011;24826;52.070;20.970;2022-12-29T08:18:27;10.07;;;4.70;;
39074;SDS011;24826;52.070;20.970;2022-12-29T08:21:11;10.88;;;5.32;;
39074;SDS011;24826;52.070;20.970;2022-12-29T08:23:56;9.18;;;4.53;;
39074;SDS011;24826;52.070;20.970;2022-12-29T08:26:40;10.90;;;4.93;;
39074;SDS011;24826;52.070;20.970;2022-12-29T08:29:24;10.38;;;5.07;;
39074;SDS011;24826;52.070;20.970;2022-12-29T08:32:09;10.20;;;5.07;;
39074;SDS011;24826;52.070;20.970;2022-12-29T08:34:54;12.05;;;5.55;;
39074;SDS011;24826;52.070;20.970;2022-12-29T08:37:38;9.32;;;4.95;;
39074;SDS011;24826;52.070;20.970;2022-12-29T08:40:23;11.10;;;5.50;;
39074;SDS011;24826;52.070;20.970;2022-12-29T08:43:08;10.55;;;5.43;;
39074;SDS011;24826;52.070;20.970;2022-12-29T08:45:52;9.40;;;5.32;;
39074;SDS011;24826;52.070;20.970;2022-12-29T08:48:37;10.00;;;4.75;;
39074;SDS011;24826;52.070;20.970;2022-12-29T08:51:21;9.60;;;4.80;;
39074;SDS011;24826;52.070;20.970;2022-12-29T08:54:06;8.68;;;4.40;;
39074;SDS011;24826;52.070;20.970;2022-12-29T08:56:50;10.68;;;5.03;;
39074;SDS011;24826;52.070;20.970;2022-12-29T08:59:35;10.68;;;5.28;;
39074;SDS011;24826;52.070;20.970;2022-12-29T09:02:19;9.43;;;4.40;;
39074;SDS011;24826;52.070;20.970;2022-12-29T09:05:04;9.35;;;5.10;;
39074;SDS011;24826;52.070;20.970;2022-12-29T09:07:48;9.23;;;4.10;;
39074;SDS011;24826;52.070;20.970;2022-12-29T09:10:33;8.00;;;4.28;;
39074;SDS011;24826;52.070;20.970;2022-12-29T09:13:17;10.27;;;4.57;;
39074;SDS011;24826;52.070;20.970;2022-12-29T09:16:02;10.73;;;4.53;;
39074;SDS011;24826;52.070;20.970;2022-12-29T09:18:47;10.70;;;4.88;;
39074;SDS011;24826;52.070;20.970;2022-12-29T09:21:32;9.25;;;5.03;;
39074;SDS011;24826;52.070;20.970;2022-12-29T09:24:16;11.02;;;4.32;;
39074;SDS011;24826;52.070;20.970;2022-12-29T09:27:01;7.63;;;4.13;;
39074;SDS011;24826;52.070;20.970;2022-12-29T09:29:45;7.40;;;4.30;;
39074;SDS011;24826;52.070;20.970;2022-12-29T09:32:30;9.98;;;4.95;;
39074;SDS011;24826;52.070;20.970;2022-12-29T09:35:15;9.23;;;4.07;;
39074;SDS011;24826;52.070;20.970;2022-12-29T09:38:00;9.10;;;4.72;;
39074;SDS011;24826;52.070;20.970;2022-12-29T09:40:45;8.60;;;4.88;;
39074;SDS011;24826;52.070;20.970;2022-12-29T09:46:50;9.20;;;4.38;;
39074;SDS011;24826;52.070;20.970;2022-12-29T09:49:49;8.23;;;4.43;;
39074;SDS011;24826;52.070;20.970;2022-12-29T09:52:40;10.68;;;4.90;;
39074;SDS011;24826;52.070;20.970;2022-12-29T09:55:35;8.27;;;4.72;;
39074;SDS011;24826;52.070;20.970;2022-12-29T09:58:24;10.00;;;4.45;;
39074;SDS011;24826;52.070;20.970;2022-12-29T10:01:21;9.85;;;4.40;;
39074;SDS011;24826;52.070;20.970;2022-12-29T10:04:20;9.48;;;4.60;;
39074;SDS011;24826;52.070;20.970;2022-12-29T10:07:09;9.73;;;4.68;;
39074;SDS011;24826;52.070;20.970;2022-12-29T10:10:12;7.85;;;4.15;;
39074;SDS011;24826;52.070;20.970;2022-12-29T10:13:15;9.75;;;4.75;;
39074;SDS011;24826;52.070;20.970;2022-12-29T10:16:42;9.20;;;4.90;;
39074;SDS011;24826;52.070;20.970;2022-12-29T10:22:38;8.75;;;4.68;;
39074;SDS011;24826;52.070;20.970;2022-12-29T10:25:29;7.55;;;4.53;;
39074;SDS011;24826;52.070;20.970;2022-12-29T10:28:20;9.85;;;4.50;;
39074;SDS011;24826;52.070;20.970;2022-12-29T10:31:09;10.68;;;5.07;;
39074;SDS011;24826;52.070;20.970;2022-12-29T10:34:06;10.05;;;4.85;;
39074;SDS011;24826;52.070;20.970;2022-12-29T10:37:02;9.60;;;5.22;;
39074;SDS011;24826;52.070;20.970;2022-12-29T10:39:53;9.35;;;5.15;;
39074;SDS011;24826;52.070;20.970;2022-12-29T10:42:42;9.38;;;5.40;;
39074;SDS011;24826;52.070;20.970;2022-12-29T10:45:32;10.93;;;6.05;;
39074;SDS011;24826;52.070;20.970;2022-12-29T10:48:28;9.75;;;5.18;;
39074;SDS011;24826;52.070;20.970;2022-12-29T10:51:18;12.40;;;5.63;;
39074;SDS011;24826;52.070;20.970;2022-12-29T10:57:32;9.45;;;4.97;;
39074;SDS011;24826;52.070;20.970;2022-12-29T11:00:20;9.57;;;4.85;;
39074;SDS011;24826;52.070;20.970;2022-12-29T11:09:12;11.15;;;5.57;;
39074;SDS011;24826;52.070;20.970;2022-12-29T11:12:00;10.05;;;5.10;;
39074;SDS011;24826;52.070;20.970;2022-12-29T11:14:44;12.63;;;5.28;;
39074;SDS011;24826;52.070;20.970;2022-12-29T11:17:29;10.55;;;5.55;;
39074;SDS011;24826;52.070;20.970;2022-12-29T11:20:33;11.55;;;5.60;;
39074;SDS011;24826;52.070;20.970;2022-12-29T11:26:23;10.53;;;5.67;;
39074;SDS011;24826;52.070;20.970;2022-12-29T11:29:22;9.80;;;4.95;;
39074;SDS011;24826;52.070;20.970;2022-12-29T11:35:02;10.07;;;5.00;;
39074;SDS011;24826;52.070;20.970;2022-12-29T11:37:48;11.13;;;4.75;;
39074;SDS011;24826;52.070;20.970;2022-12-29T11:40:42;9.75;;;5.38;;
39074;SDS011;24826;52.070;20.970;2022-12-29T11:43:31;10.77;;;5.28;;
39074;SDS011;24826;52.070;20.970;2022-12-29T11:46:23;9.93;;;4.97;;
39074;SDS011;24826;52.070;20.970;2022-12-29T11:49:11;10.55;;;5.55;;
39074;SDS011;24826;52.070;20.970;2022-12-29T11:52:02;9.65;;;4.88;;
39074;SDS011;24826;52.070;20.970;2022-12-29T11:54:47;9.73;;;5.05;;
39074;SDS011;24826;52.070;20.970;2022-12-29T11:57:32;9.48;;;4.70;;
39074;SDS011;24826;52.070;20.970;2022-12-29T12:00:19;9.13;;;5.00;;
39074;SDS011;24826;52.070;20.970;2022-12-29T12:03:22;9.05;;;4.78;;
39074;SDS011;24826;52.070;20.970;2022-12-29T12:06:10;9.68;;;5.05;;
39074;SDS011;24826;52.070;20.970;2022-12-29T12:09:05;13.30;;;5.97;;
39074;SDS011;24826;52.070;20.970;2022-12-29T12:11:54;9.80;;;4.72;;
39074;SDS011;24826;52.070;20.970;2022-12-29T12:14:43;11.43;;;5.70;;
39074;SDS011;24826;52.070;20.970;2022-12-29T12:17:41;10.57;;;5.05;;
39074;SDS011;24826;52.070;20.970;2022-12-29T12:20:51;11.35;;;5.63;;
39074;SDS011;24826;52.070;20.970;2022-12-29T12:24:00;11.88;;;5.55;;
39074;SDS011;24826;52.070;20.970;2022-12-29T12:30:15;10.75;;;6.03;;
39074;SDS011;24826;52.070;20.970;2022-12-29T12:33:03;11.00;;;5.65;;
39074;SDS011;24826;52.070;20.970;2022-12-29T12:36:07;10.63;;;5.05;;
39074;SDS011;24826;52.070;20.970;2022-12-29T12:42:03;9.82;;;5.22;;
39074;SDS011;24826;52.070;20.970;2022-12-29T12:44:55;13.57;;;4.93;;
39074;SDS011;24826;52.070;20.970;2022-12-29T12:51:19;9.48;;;4.70;;
39074;SDS011;24826;52.070;20.970;2022-12-29T12:54:14;10.50;;;4.72;;
39074;SDS011;24826;52.070;20.970;2022-12-29T12:57:16;10.73;;;5.10;;
39074;SDS011;24826;52.070;20.970;2022-12-29T13:00:10;9.65;;;4.60;;
39074;SDS011;24826;52.070;20.970;2022-12-29T13:06:13;7.97;;;4.30;;
39074;SDS011;24826;52.070;20.970;2022-12-29T13:09:37;9.45;;;4.65;;
39074;SDS011;24826;52.070;20.970;2022-12-29T13:12:48;8.85;;;4.10;;
39074;SDS011;24826;52.070;20.970;2022-12-29T13:15:49;10.18;;;4.85;;
39074;SDS011;24826;52.070;20.970;2022-12-29T13:19:06;9.40;;;4.55;;
39074;SDS011;24826;52.070;20.970;2022-12-29T13:28:22;10.13;;;4.95;;
39074;SDS011;24826;52.070;20.970;2022-12-29T13:31:44;8.43;;;4.75;;
39074;SDS011;24826;52.070;20.970;2022-12-29T13:38:46;10.00;;;4.47;;
39074;SDS011;24826;52.070;20.970;2022-12-29T13:41:39;10.93;;;4.33;;
39074;SDS011;24826;52.070;20.970;2022-12-29T13:44:34;10.15;;;4.50;;
39074;SDS011;24826;52.070;20.970;2022-12-29T13:50:33;9.23;;;4.55;;
39074;SDS011;24826;52.070;20.970;2022-12-29T13:53:26;8.18;;;4.60;;
39074;SDS011;24826;52.070;20.970;2022-12-29T13:56:33;10.45;;;4.68;;
39074;SDS011;24826;52.070;20.970;2022-12-29T14:05:30;10.57;;;5.53;;
39074;SDS011;24826;52.070;20.970;2022-12-29T14:08:16;8.65;;;4.82;;
39074;SDS011;24826;52.070;20.970;2022-12-29T14:11:06;11.10;;;5.70;;
39074;SDS011;24826;52.070;20.970;2022-12-29T14:13:54;8.23;;;4.70;;
39074;SDS011;24826;52.070;20.970;2022-12-29T14:16:38;10.43;;;5.07;;
39074;SDS011;24826;52.070;20.970;2022-12-29T14:19:29;8.70;;;4.82;;
39074;SDS011;24826;52.070;20.970;2022-12-29T14:22:16;9.75;;;5.15;;
39074;SDS011;24826;52.070;20.970;2022-12-29T14:25:07;11.55;;;4.63;;
39074;SDS011;24826;52.070;20.970;2022-12-29T14:36:56;10.95;;;5.18;;
39074;SDS011;24826;52.070;20.970;2022-12-29T14:39:43;11.75;;;4.95;;
39074;SDS011;24826;52.070;20.970;2022-12-29T14:42:29;12.55;;;5.57;;
39074;SDS011;24826;52.070;20.970;2022-12-29T14:48:00;11.63;;;5.82;;
39074;SDS011;24826;52.070;20.970;2022-12-29T14:50:45;11.00;;;5.90;;
39074;SDS011;24826;52.070;20.970;2022-12-29T14:53:49;11.73;;;5.82;;
39074;SDS011;24826;52.070;20.970;2022-12-29T14:56:34;11.18;;;5.68;;
39074;SDS011;24826;52.070;20.970;2022-12-29T14:59:22;15.18;;;6.53;;
39074;SDS011;24826;52.070;20.970;2022-12-29T15:02:13;12.93;;;6.20;;
39074;SDS011;24826;52.070;20.970;2022-12-29T15:05:32;13.05;;;5.97;;
39074;SDS011;24826;52.070;20.970;2022-12-29T15:08:36;10.15;;;5.93;;
39074;SDS011;24826;52.070;20.970;2022-12-29T15:11:30;13.77;;;6.45;;
39074;SDS011;24826;52.070;20.970;2022-12-29T15:17:36;12.35;;;6.10;;
39074;SDS011;24826;52.070;20.970;2022-12-29T15:20:22;11.98;;;5.63;;
39074;SDS011;24826;52.070;20.970;2022-12-29T15:26:03;10.63;;;5.85;;
39074;SDS011;24826;52.070;20.970;2022-12-29T15:28:50;14.43;;;5.43;;
39074;SDS011;24826;52.070;20.970;2022-12-29T15:31:36;13.98;;;6.30;;
39074;SDS011;24826;52.070;20.970;2022-12-29T15:34:31;10.45;;;5.30;;
39074;SDS011;24826;52.070;20.970;2022-12-29T15:37:20;10.45;;;5.47;;
39074;SDS011;24826;52.070;20.970;2022-12-29T15:40:19;10.48;;;5.40;;
39074;SDS011;24826;52.070;20.970;2022-12-29T15:46:12;12.65;;;6.38;;
39074;SDS011;24826;52.070;20.970;2022-12-29T15:48:57;11.52;;;5.60;;
39074;SDS011;24826;52.070;20.970;2022-12-29T15:51:42;13.45;;;5.90;;
39074;SDS011;24826;52.070;20.970;2022-12-29T15:54:30;11.18;;;6.05;;
39074;SDS011;24826;52.070;20.970;2022-12-29T15:57:23;12.45;;;5.80;;
39074;SDS011;24826;52.070;20.970;2022-12-29T16:00:21;11.98;;;5.97;;
39074;SDS011;24826;52.070;20.970;2022-12-29T16:03:10;10.07;;;5.25;;
39074;SDS011;24826;52.070;20.970;2022-12-29T16:06:08;10.25;;;5.95;;
39074;SDS011;24826;52.070;20.970;2022-12-29T16:09:13;9.80;;;4.82;;
39074;SDS011;24826;52.070;20.970;2022-12-29T16:12:03;11.75;;;5.43;;
39074;SDS011;24826;52.070;20.970;2022-12-29T16:14:54;11.15;;;5.95;;
39074;SDS011;24826;52.070;20.970;2022-12-29T16:17:51;9.93;;;5.38;;
39074;SDS011;24826;52.070;20.970;2022-12-29T16:20:39;10.35;;;5.55;;
39074;SDS011;24826;52.070;20.970;2022-12-29T16:23:26;11.75;;;5.85;;
39074;SDS011;24826;52.070;20.970;2022-12-29T16:26:16;10.23;;;5.80;;
39074;SDS011;24826;52.070;20.970;2022-12-29T16:29:04;12.90;;;6.37;;
39074;SDS011;24826;52.070;20.970;2022-12-29T16:34:44;10.57;;;5.70;;
39074;SDS011;24826;52.070;20.970;2022-12-29T16:37:32;9.98;;;5.40;;
39074;SDS011;24826;52.070;20.970;2022-12-29T16:43:21;10.13;;;5.30;;
39074;SDS011;24826;52.070;20.970;2022-12-29T16:46:43;15.32;;;6.03;;
39074;SDS011;24826;52.070;20.970;2022-12-29T16:49:21;11.68;;;5.88;;
39074;SDS011;24826;52.070;20.970;2022-12-29T16:52:39;11.80;;;5.70;;
39074;SDS011;24826;52.070;20.970;2022-12-29T16:55:19;12.15;;;5.55;;
39074;SDS011;24826;52.070;20.970;2022-12-29T16:58:04;13.23;;;5.93;;
39074;SDS011;24826;52.070;20.970;2022-12-29T17:00:48;12.93;;;6.60;;
39074;SDS011;24826;52.070;20.970;2022-12-29T17:03:37;15.98;;;7.00;;
39074;SDS011;24826;52.070;20.970;2022-12-29T17:06:23;12.07;;;6.95;;
39074;SDS011;24826;52.070;20.970;2022-12-29T17:12:03;13.13;;;7.03;;
39074;SDS011;24826;52.070;20.970;2022-12-29T17:15:05;15.38;;;7.35;;
39074;SDS011;24826;52.070;20.970;2022-12-29T17:17:56;13.35;;;6.65;;
39074;SDS011;24826;52.070;20.970;2022-12-29T17:20:41;11.70;;;6.47;;
39074;SDS011;24826;52.070;20.970;2022-12-29T17:23:25;10.88;;;6.07;;
39074;SDS011;24826;52.070;20.970;2022-12-29T17:26:09;11.73;;;6.00;;
39074;SDS011;24826;52.070;20.970;2022-12-29T17:28:55;10.73;;;6.25;;
39074;SDS011;24826;52.070;20.970;2022-12-29T17:31:40;10.82;;;6.25;;
39074;SDS011;24826;52.070;20.970;2022-12-29T17:34:24;10.45;;;5.80;;
39074;SDS011;24826;52.070;20.970;2022-12-29T17:37:15;13.70;;;6.72;;
39074;SDS011;24826;52.070;20.970;2022-12-29T17:40:07;11.52;;;6.55;;
39074;SDS011;24826;52.070;20.970;2022-12-29T17:42:57;15.65;;;7.15;;
39074;SDS011;24826;52.070;20.970;2022-12-29T17:45:42;15.02;;;6.70;;
39074;SDS011;24826;52.070;20.970;2022-12-29T17:48:30;12.00;;;6.20;;
39074;SDS011;24826;52.070;20.970;2022-12-29T17:51:14;14.10;;;6.63;;
39074;SDS011;24826;52.070;20.970;2022-12-29T17:53:59;14.18;;;6.07;;
39074;SDS011;24826;52.070;20.970;2022-12-29T17:56:44;13.73;;;6.95;;
39074;SDS011;24826;52.070;20.970;2022-12-29T17:59:28;13.10;;;7.13;;
39074;SDS011;24826;52.070;20.970;2022-12-29T18:02:24;11.80;;;6.93;;
39074;SDS011;24826;52.070;20.970;2022-12-29T18:05:18;11.48;;;6.93;;
39074;SDS011;24826;52.070;20.970;2022-12-29T18:08:07;13.07;;;7.45;;
39074;SDS011;24826;52.070;20.970;2022-12-29T18:10:54;13.40;;;7.20;;
39074;SDS011;24826;52.070;20.970;2022-12-29T18:13:38;11.75;;;6.72;;
39074;SDS011;24826;52.070;20.970;2022-12-29T18:16:23;14.32;;;7.05;;
39074;SDS011;24826;52.070;20.970;2022-12-29T18:19:07;15.20;;;7.47;;
39074;SDS011;24826;52.070;20.970;2022-12-29T18:21:52;13.68;;;6.93;;
39074;SDS011;24826;52.070;20.970;2022-12-29T18:24:37;14.05;;;7.38;;
39074;SDS011;24826;52.070;20.970;2022-12-29T18:27:21;14.32;;;8.25;;
39074;SDS011;24826;52.070;20.970;2022-12-29T18:30:06;14.10;;;7.30;;
39074;SDS011;24826;52.070;20.970;2022-12-29T18:32:51;15.32;;;8.27;;
39074;SDS011;24826;52.070;20.970;2022-12-29T18:35:37;14.63;;;7.45;;
39074;SDS011;24826;52.070;20.970;2022-12-29T18:38:25;15.82;;;8.18;;